createdAt,value
2023-02-11T00:00:14.819Z,0
2023-02-11T00:01:14.778Z,0
2023-02-11T00:02:14.968Z,0
2023-02-11T00:03:14.995Z,0
2023-02-11T00:04:14.655Z,0
2023-02-11T00:05:14.641Z,0
2023-02-11T00:06:14.613Z,0
2023-02-11T00:07:14.555Z,0
2023-02-11T00:08:14.538Z,0
2023-02-11T00:09:14.511Z,0
2023-02-11T00:10:14.503Z,0
2023-02-11T00:11:14.496Z,0
2023-02-11T00:12:14.385Z,0
2023-02-11T00:13:14.372Z,0
2023-02-11T00:14:14.327Z,0
2023-02-11T00:15:14.296Z,0
2023-02-11T00:16:14.542Z,0
2023-02-11T00:17:14.226Z,0
2023-02-11T00:18:14.204Z,0
2023-02-11T00:19:14.200Z,0
2023-02-11T00:20:15.416Z,0
2023-02-11T00:21:14.088Z,0
2023-02-11T00:22:14.090Z,0
2023-02-11T00:23:14.031Z,0
2023-02-11T00:24:14.004Z,0
2023-02-11T00:25:13.967Z,0
2023-02-11T00:26:13.700Z,0
2023-02-11T00:27:13.927Z,0
2023-02-11T00:28:14.172Z,0
2023-02-11T00:29:13.849Z,0
2023-02-11T00:30:13.790Z,0
2023-02-11T00:31:14.409Z,0
2023-02-11T00:32:13.808Z,0
2023-02-11T00:33:13.710Z,0
2023-02-11T00:34:13.656Z,0
2023-02-11T00:35:13.649Z,0
2023-02-11T00:36:13.655Z,0
2023-02-11T00:37:13.610Z,0
2023-02-11T00:38:13.565Z,0
2023-02-11T00:39:13.492Z,0
2023-02-11T00:40:14.078Z,0
2023-02-11T00:41:13.442Z,0
2023-02-11T00:42:13.408Z,0
2023-02-11T00:43:13.394Z,0
2023-02-11T00:44:13.347Z,0
2023-02-11T00:45:13.292Z,0
2023-02-11T00:46:13.713Z,0
2023-02-11T00:47:13.223Z,0
2023-02-11T00:48:13.257Z,0
2023-02-11T00:49:13.179Z,0
2023-02-11T00:50:13.123Z,0
2023-02-11T00:51:13.129Z,0
2023-02-11T00:52:13.091Z,0
2023-02-11T00:53:13.030Z,0
2023-02-11T00:54:13.068Z,0
2023-02-11T00:55:12.964Z,0
2023-02-11T00:56:12.964Z,0
2023-02-11T00:57:12.888Z,0
2023-02-11T00:58:12.864Z,0
2023-02-11T00:59:12.871Z,0
2023-02-11T01:00:12.829Z,0
2023-02-11T01:01:13.057Z,0
2023-02-11T01:02:12.730Z,0
2023-02-11T01:03:12.689Z,0
2023-02-11T01:04:12.696Z,0
2023-02-11T01:05:12.893Z,0
2023-02-11T01:06:12.624Z,0
2023-02-11T01:07:12.635Z,0
2023-02-11T01:08:12.538Z,0
2023-02-11T01:09:12.518Z,0
2023-02-11T01:10:12.544Z,0
2023-02-11T01:11:12.438Z,0
2023-02-11T01:12:12.446Z,0
2023-02-11T01:13:12.370Z,0
2023-02-11T01:14:12.354Z,0
2023-02-11T01:15:12.328Z,0
2023-02-11T01:16:12.546Z,0
2023-02-11T01:17:12.233Z,0
2023-02-11T01:18:12.206Z,0
2023-02-11T01:19:12.421Z,0
2023-02-11T01:20:12.181Z,0
2023-02-11T01:21:12.112Z,0
2023-02-11T01:22:12.080Z,0
2023-02-11T01:23:12.072Z,0
2023-02-11T01:24:12.039Z,0
2023-02-11T01:25:11.984Z,0
2023-02-11T01:26:11.995Z,0
2023-02-11T01:27:11.935Z,0
2023-02-11T01:28:12.117Z,0
2023-02-11T01:29:11.858Z,0
2023-02-11T01:30:11.583Z,0
2023-02-11T01:31:12.248Z,0
2023-02-11T01:32:12.060Z,0
2023-02-11T01:33:11.749Z,0
2023-02-11T01:34:11.689Z,0
2023-02-11T01:35:11.703Z,0
2023-02-11T01:36:11.667Z,0
2023-02-11T01:37:11.605Z,0
2023-02-11T01:38:11.566Z,0
2023-02-11T01:39:11.556Z,0
2023-02-11T01:40:11.573Z,0
2023-02-11T01:41:11.479Z,0
2023-02-11T01:42:11.458Z,0
2023-02-11T01:43:11.437Z,0
2023-02-11T01:44:11.401Z,0
2023-02-11T01:45:10.858Z,0
2023-02-11T01:46:11.629Z,0
2023-02-11T01:47:11.329Z,0
2023-02-11T01:48:11.251Z,0
2023-02-11T01:49:11.690Z,0
2023-02-11T01:50:11.194Z,0
2023-02-11T01:51:11.146Z,0
2023-02-11T01:52:11.127Z,0
2023-02-11T01:53:11.066Z,0
2023-02-11T01:54:11.034Z,0
2023-02-11T01:55:11.021Z,0
2023-02-11T01:56:10.959Z,0
2023-02-11T01:57:10.955Z,0
2023-02-11T01:58:10.931Z,0
2023-02-11T01:59:10.888Z,0
2023-02-11T02:00:10.864Z,0
2023-02-11T02:01:10.804Z,0
2023-02-11T02:02:10.788Z,0
2023-02-11T02:03:10.799Z,0
2023-02-11T02:04:10.891Z,0
2023-02-11T02:05:10.855Z,0
2023-02-11T02:06:10.654Z,0
2023-02-11T02:07:10.622Z,0
2023-02-11T02:08:10.592Z,0
2023-02-11T02:09:10.350Z,0
2023-02-11T02:10:10.510Z,0
2023-02-11T02:11:10.655Z,0
2023-02-11T02:12:10.451Z,0
2023-02-11T02:13:10.446Z,0
2023-02-11T02:14:10.413Z,0
2023-02-11T02:15:10.350Z,0
2023-02-11T02:16:13.426Z,0
2023-02-11T02:17:10.289Z,0
2023-02-11T02:18:10.262Z,0
2023-02-11T02:19:10.286Z,0
2023-02-11T02:20:10.164Z,0
2023-02-11T02:21:10.165Z,0
2023-02-11T02:22:10.131Z,0
2023-02-11T02:23:10.108Z,0
2023-02-11T02:24:11.530Z,0
2023-02-11T02:25:10.004Z,0
2023-02-11T02:26:09.986Z,0
2023-02-11T02:27:09.991Z,0
2023-02-11T02:28:10.086Z,0
2023-02-11T02:29:09.888Z,0
2023-02-11T02:30:09.896Z,0
2023-02-11T02:31:10.152Z,0
2023-02-11T02:32:09.776Z,0
2023-02-11T02:33:28.694Z,0
2023-02-11T02:34:09.716Z,0
2023-02-11T02:35:09.774Z,0
2023-02-11T02:36:09.652Z,0
2023-02-11T02:37:09.639Z,0
2023-02-11T02:38:09.598Z,0
2023-02-11T02:39:09.548Z,0
2023-02-11T02:40:09.596Z,0
2023-02-11T02:41:09.607Z,0
2023-02-11T02:42:09.450Z,0
2023-02-11T02:43:09.487Z,0
2023-02-11T02:44:09.386Z,0
2023-02-11T02:45:09.361Z,0
2023-02-11T02:46:09.411Z,0
2023-02-11T02:47:09.572Z,0
2023-02-11T02:48:09.263Z,0
2023-02-11T02:49:08.979Z,0
2023-02-11T02:50:09.182Z,0
2023-02-11T02:51:09.175Z,0
2023-02-11T02:52:08.888Z,0
2023-02-11T02:53:09.320Z,0
2023-02-11T02:54:09.104Z,0
2023-02-11T02:55:09.035Z,0
2023-02-11T02:56:09.046Z,0
2023-02-11T02:57:08.952Z,0
2023-02-11T02:58:08.927Z,0
2023-02-11T02:59:09.107Z,0
2023-02-11T03:00:08.931Z,0
2023-02-11T03:01:09.128Z,0
2023-02-11T03:02:08.833Z,0
2023-02-11T03:03:08.760Z,0
2023-02-11T03:04:09.128Z,0
2023-02-11T03:05:08.747Z,0
2023-02-11T03:06:08.670Z,0
2023-02-11T03:07:08.692Z,0
2023-02-11T03:08:08.629Z,0
2023-02-11T03:09:11.339Z,0
2023-02-11T03:10:08.856Z,0
2023-02-11T03:11:08.503Z,0
2023-02-11T03:12:08.514Z,0
2023-02-11T03:13:08.452Z,0
2023-02-11T03:14:08.411Z,0
2023-02-11T03:15:08.393Z,0
2023-02-11T03:16:08.808Z,0
2023-02-11T03:17:08.330Z,0
2023-02-11T03:18:08.299Z,0
2023-02-11T03:19:08.241Z,0
2023-02-11T03:20:08.209Z,0
2023-02-11T03:21:08.196Z,0
2023-02-11T03:22:08.218Z,0
2023-02-11T03:23:08.132Z,0
2023-02-11T03:24:07.866Z,0
2023-02-11T03:25:08.057Z,0
2023-02-11T03:26:07.998Z,0
2023-02-11T03:27:08.079Z,0
2023-02-11T03:28:08.365Z,0
2023-02-11T03:29:07.922Z,0
2023-02-11T03:30:07.880Z,0
2023-02-11T03:31:08.434Z,0
2023-02-11T03:32:08.153Z,0
2023-02-11T03:33:07.802Z,0
2023-02-11T03:34:07.784Z,0
2023-02-11T03:35:07.730Z,0
2023-02-11T03:36:07.817Z,0
2023-02-11T03:37:07.637Z,0
2023-02-11T03:38:07.619Z,0
2023-02-11T03:39:07.669Z,0
2023-02-11T03:40:07.581Z,0
2023-02-11T03:41:07.523Z,0
2023-02-11T03:42:07.497Z,0
2023-02-11T03:43:07.453Z,0
2023-02-11T03:44:07.469Z,0
2023-02-11T03:45:07.451Z,0
2023-02-11T03:46:07.675Z,0
2023-02-11T03:47:07.336Z,0
2023-02-11T03:48:07.285Z,0
2023-02-11T03:49:07.255Z,0
2023-02-11T03:50:07.234Z,0
2023-02-11T03:51:07.207Z,0
2023-02-11T03:52:07.186Z,0
2023-02-11T03:53:07.122Z,0
2023-02-11T03:54:07.105Z,0
2023-02-11T03:55:07.081Z,0
2023-02-11T03:56:07.062Z,0
2023-02-11T03:57:07.078Z,0
2023-02-11T03:58:06.967Z,0
2023-02-11T03:59:06.936Z,0
2023-02-11T04:00:06.935Z,0
2023-02-11T04:01:06.946Z,0
2023-02-11T04:02:06.848Z,0
2023-02-11T04:03:07.041Z,0
2023-02-11T04:04:06.807Z,0
2023-02-11T04:05:06.739Z,0
2023-02-11T04:06:06.733Z,0
2023-02-11T04:07:06.694Z,0
2023-02-11T04:08:06.652Z,0
2023-02-11T04:09:06.587Z,0
2023-02-11T04:10:06.576Z,0
2023-02-11T04:11:06.600Z,0
2023-02-11T04:12:06.522Z,0
2023-02-11T04:13:06.471Z,0
2023-02-11T04:14:06.433Z,0
2023-02-11T04:15:06.420Z,0
2023-02-11T04:16:06.709Z,0
2023-02-11T04:17:06.344Z,0
2023-02-11T04:18:06.303Z,0
2023-02-11T04:19:06.306Z,0
2023-02-11T04:20:06.378Z,0
2023-02-11T04:21:06.252Z,0
2023-02-11T04:22:05.958Z,0
2023-02-11T04:23:06.144Z,0
2023-02-11T04:24:06.095Z,0
2023-02-11T04:25:06.111Z,0
2023-02-11T04:26:06.116Z,0
2023-02-11T04:27:06.044Z,0
2023-02-11T04:28:06.222Z,0
2023-02-11T04:29:05.941Z,0
2023-02-11T04:30:05.942Z,0
2023-02-11T04:31:06.200Z,0
2023-02-11T04:32:06.239Z,0
2023-02-11T04:33:05.857Z,0
2023-02-11T04:34:05.787Z,0
2023-02-11T04:35:05.764Z,0
2023-02-11T04:36:05.733Z,0
2023-02-11T04:37:05.665Z,0
2023-02-11T04:38:05.914Z,0
2023-02-11T04:39:05.603Z,0
2023-02-11T04:40:05.582Z,0
2023-02-11T04:41:05.534Z,0
2023-02-11T04:42:05.572Z,0
2023-02-11T04:43:05.496Z,0
2023-02-11T04:44:05.188Z,0
2023-02-11T04:45:05.409Z,0
2023-02-11T04:46:05.671Z,0
2023-02-11T04:47:05.109Z,0
2023-02-11T04:48:05.110Z,0
2023-02-11T04:49:05.655Z,0
2023-02-11T04:50:05.237Z,0
2023-02-11T04:51:05.224Z,0
2023-02-11T04:52:05.177Z,0
2023-02-11T04:53:05.189Z,0
2023-02-11T04:54:05.152Z,0
2023-02-11T04:55:05.065Z,0
2023-02-11T04:56:05.037Z,0
2023-02-11T04:57:05.033Z,0
2023-02-11T04:58:04.961Z,0
2023-02-11T04:59:04.965Z,0
2023-02-11T05:00:04.912Z,0
2023-02-11T05:01:05.049Z,0
2023-02-11T05:02:04.863Z,0
2023-02-11T05:03:04.843Z,0
2023-02-11T05:04:05.054Z,0
2023-02-11T05:05:04.734Z,0
2023-02-11T05:06:04.833Z,0
2023-02-11T05:07:05.886Z,0
2023-02-11T05:08:04.646Z,0
2023-02-11T05:09:04.614Z,0
2023-02-11T05:10:04.628Z,0
2023-02-11T05:11:04.652Z,0
2023-02-11T05:12:04.531Z,0
2023-02-11T05:13:04.520Z,0
2023-02-11T05:14:04.431Z,0
2023-02-11T05:15:04.417Z,0
2023-02-11T05:16:04.401Z,0
2023-02-11T05:17:04.329Z,0
2023-02-11T05:18:04.355Z,0
2023-02-11T05:19:04.303Z,0
2023-02-11T05:20:05.444Z,0
2023-02-11T05:21:04.205Z,0
2023-02-11T05:22:10.420Z,0
2023-02-11T05:23:04.153Z,0
2023-02-11T05:24:03.973Z,0
2023-02-11T05:25:04.072Z,0
2023-02-11T05:26:04.054Z,0
2023-02-11T05:27:04.028Z,0
2023-02-11T05:28:04.106Z,0
2023-02-11T05:29:03.949Z,0
2023-02-11T05:30:03.934Z,0
2023-02-11T05:31:04.217Z,0
2023-02-11T05:32:03.864Z,0
2023-02-11T05:33:03.805Z,0
2023-02-11T05:34:03.773Z,0
2023-02-11T05:35:03.782Z,0
2023-02-11T05:36:03.723Z,0
2023-02-11T05:37:04.859Z,0
2023-02-11T05:38:03.659Z,0
2023-02-11T05:39:03.605Z,0
2023-02-11T05:40:03.577Z,0
2023-02-11T05:41:03.628Z,0
2023-02-11T05:42:03.532Z,0
2023-02-11T05:43:03.484Z,0
2023-02-11T05:44:03.458Z,0
2023-02-11T05:45:03.395Z,0
2023-02-11T05:46:03.514Z,0
2023-02-11T05:47:03.364Z,0
2023-02-11T05:48:03.306Z,0
2023-02-11T05:49:03.277Z,0
2023-02-11T05:50:03.255Z,0
2023-02-11T05:51:03.205Z,0
2023-02-11T05:52:03.326Z,0
2023-02-11T05:53:03.729Z,0
2023-02-11T05:54:03.128Z,0
2023-02-11T05:55:03.085Z,0
2023-02-11T05:56:03.038Z,0
2023-02-11T05:57:03.000Z,0
2023-02-11T05:58:03.032Z,0
2023-02-11T05:59:02.940Z,0
2023-02-11T06:00:02.908Z,0
2023-02-11T06:01:02.882Z,0
2023-02-11T06:02:02.867Z,0
2023-02-11T06:03:03.003Z,0
2023-02-11T06:04:03.227Z,0
2023-02-11T06:05:02.742Z,0
2023-02-11T06:06:02.734Z,0
2023-02-11T06:07:02.676Z,0
2023-02-11T06:08:02.664Z,0
2023-02-11T06:09:02.598Z,0
2023-02-11T06:10:02.368Z,0
2023-02-11T06:11:02.549Z,0
2023-02-11T06:12:02.504Z,0
2023-02-11T06:13:02.487Z,0
2023-02-11T06:14:02.521Z,0
2023-02-11T06:15:02.433Z,0
2023-02-11T06:16:02.681Z,0
2023-02-11T06:17:02.360Z,0
2023-02-11T06:18:02.318Z,0
2023-02-11T06:19:02.308Z,0
2023-02-11T06:20:02.244Z,0
2023-02-11T06:21:02.405Z,0
2023-02-11T06:22:02.218Z,0
2023-02-11T06:23:02.145Z,0
2023-02-11T06:24:02.121Z,0
2023-02-11T06:25:08.968Z,0
2023-02-11T06:26:02.032Z,0
2023-02-11T06:27:02.161Z,4
2023-02-11T06:28:02.523Z,4
2023-02-11T06:29:01.929Z,0
2023-02-11T06:30:01.978Z,4
2023-02-11T06:31:02.226Z,4
2023-02-11T06:32:02.408Z,8
2023-02-11T06:33:02.040Z,4
2023-02-11T06:34:01.770Z,4
2023-02-11T06:35:01.785Z,4
2023-02-11T06:36:01.771Z,12
2023-02-11T06:37:01.700Z,12
2023-02-11T06:38:01.661Z,12
2023-02-11T06:39:01.608Z,12
2023-02-11T06:40:01.611Z,12
2023-02-11T06:41:01.576Z,16
2023-02-11T06:42:01.510Z,16
2023-02-11T06:43:01.482Z,24
2023-02-11T06:44:01.456Z,28
2023-02-11T06:45:01.439Z,28
2023-02-11T06:46:01.404Z,32
2023-02-11T06:47:01.269Z,32
2023-02-11T06:48:01.313Z,36
2023-02-11T06:49:01.303Z,44
2023-02-11T06:50:01.238Z,44
2023-02-11T06:51:01.236Z,48
2023-02-11T06:52:00.931Z,52
2023-02-11T06:53:01.156Z,48
2023-02-11T06:54:01.117Z,64
2023-02-11T06:55:01.084Z,72
2023-02-11T06:56:01.064Z,76
2023-02-11T06:57:01.034Z,80
2023-02-11T06:58:00.979Z,80
2023-02-11T06:59:01.006Z,84
2023-02-11T07:00:00.957Z,92
2023-02-11T07:01:00.902Z,100
2023-02-11T07:02:01.190Z,112
2023-02-11T07:03:01.118Z,108
2023-02-11T07:04:00.864Z,112
2023-02-11T07:05:00.777Z,116
2023-02-11T07:06:00.704Z,132
2023-02-11T07:07:00.718Z,148
2023-02-11T07:08:00.643Z,156
2023-02-11T07:09:00.617Z,180
2023-02-11T07:10:00.615Z,188
2023-02-11T07:11:00.553Z,192
2023-02-11T07:12:00.543Z,204
2023-02-11T07:13:03.467Z,220
2023-02-11T07:14:00.448Z,224
2023-02-11T07:15:00.419Z,260
2023-02-11T07:16:00.896Z,284
2023-02-11T07:17:00.388Z,300
2023-02-11T07:18:00.381Z,292
2023-02-11T07:19:00.039Z,308
2023-02-11T07:20:00.256Z,304
2023-02-11T07:21:00.233Z,328
2023-02-11T07:22:00.193Z,332
2023-02-11T07:23:00.263Z,344
2023-02-11T07:24:00.127Z,352
2023-02-11T07:25:00.105Z,376
2023-02-11T07:26:00.146Z,388
2023-02-11T07:27:00.021Z,420
2023-02-11T07:28:00.262Z,412
2023-02-11T07:28:59.999Z,436
2023-02-11T07:29:59.944Z,476
2023-02-11T07:31:00.205Z,476
2023-02-11T07:32:00.197Z,468
2023-02-11T07:32:59.827Z,468
2023-02-11T07:33:59.912Z,468
2023-02-11T07:35:00.185Z,484
2023-02-11T07:36:00.140Z,508
2023-02-11T07:36:59.680Z,516
2023-02-11T07:37:59.662Z,556
2023-02-11T07:38:59.641Z,572
2023-02-11T07:39:59.598Z,612
2023-02-11T07:40:59.552Z,604
2023-02-11T07:41:59.527Z,688
2023-02-11T07:42:59.526Z,696
2023-02-11T07:43:59.498Z,704
2023-02-11T07:44:59.461Z,708
2023-02-11T07:45:59.665Z,660
2023-02-11T07:46:59.578Z,652
2023-02-11T07:47:59.344Z,708
2023-02-11T07:48:59.354Z,832
2023-02-11T07:50:02.498Z,892
2023-02-11T07:50:59.224Z,900
2023-02-11T07:51:59.200Z,896
2023-02-11T07:52:59.154Z,900
2023-02-11T07:53:59.166Z,896
2023-02-11T07:54:59.132Z,996
2023-02-11T07:55:59.389Z,1016
2023-02-11T07:56:59.038Z,1080
2023-02-11T07:57:58.988Z,1072
2023-02-11T07:58:59.012Z,1060
2023-02-11T07:59:58.943Z,1012
2023-02-11T08:00:59.130Z,1088
2023-02-11T08:01:59.172Z,1108
2023-02-11T08:02:58.832Z,1208
2023-02-11T08:03:58.991Z,1192
2023-02-11T08:04:58.764Z,1140
2023-02-11T08:05:58.896Z,1148
2023-02-11T08:07:01.458Z,1128
2023-02-11T08:07:58.668Z,1172
2023-02-11T08:08:58.651Z,1248
2023-02-11T08:09:58.600Z,1248
2023-02-11T08:10:58.748Z,1156
2023-02-11T08:11:58.551Z,1108
2023-02-11T08:12:58.564Z,1236
2023-02-11T08:13:58.533Z,1356
2023-02-11T08:14:58.460Z,1360
2023-02-11T08:15:59.072Z,1360
2023-02-11T08:16:58.522Z,1252
2023-02-11T08:17:58.332Z,1240
2023-02-11T08:18:58.322Z,1312
2023-02-11T08:19:58.275Z,1484
2023-02-11T08:20:58.764Z,1580
2023-02-11T08:21:58.219Z,1492
2023-02-11T08:22:58.158Z,1392
2023-02-11T08:23:58.149Z,1356
2023-02-11T08:24:59.572Z,1440
2023-02-11T08:25:58.063Z,1528
2023-02-11T08:26:57.833Z,1680
2023-02-11T08:27:58.086Z,1824
2023-02-11T08:28:57.971Z,1832
2023-02-11T08:29:57.926Z,1796
2023-02-11T08:30:58.666Z,1752
2023-02-11T08:31:58.188Z,1576
2023-02-11T08:32:57.851Z,1516
2023-02-11T08:33:57.888Z,1412
2023-02-11T08:34:57.829Z,1512
2023-02-11T08:35:57.819Z,1656
2023-02-11T08:36:57.815Z,1888
2023-02-11T08:37:57.699Z,2036
2023-02-11T08:39:20.201Z,1936
2023-02-11T08:39:57.603Z,2024
2023-02-11T08:40:58.065Z,1856
2023-02-11T08:41:57.555Z,1668
2023-02-11T08:42:57.532Z,1636
2023-02-11T08:43:57.473Z,1588
2023-02-11T08:44:57.508Z,1772
2023-02-11T08:46:00.744Z,1800
2023-02-11T08:46:57.390Z,1844
2023-02-11T08:47:57.397Z,1756
2023-02-11T08:48:57.328Z,1796
2023-02-11T08:49:57.292Z,2008
2023-02-11T08:50:57.272Z,2236
2023-02-11T08:51:57.286Z,2280
2023-02-11T08:52:57.192Z,2532
2023-02-11T08:53:57.184Z,2580
2023-02-11T08:54:57.119Z,2500
2023-02-11T08:55:57.902Z,2648
2023-02-11T08:56:57.054Z,2580
2023-02-11T08:57:57.029Z,2508
2023-02-11T08:58:57.009Z,2572
2023-02-11T08:59:56.950Z,2740
2023-02-11T09:00:58.290Z,2972
2023-02-11T09:01:57.098Z,3232
2023-02-11T09:02:56.869Z,3576
2023-02-11T09:03:56.910Z,3712
2023-02-11T09:04:56.819Z,3672
2023-02-11T09:05:56.828Z,3660
2023-02-11T09:06:56.733Z,3464
2023-02-11T09:07:56.695Z,3216
2023-02-11T09:08:56.776Z,3300
2023-02-11T09:09:56.657Z,3496
2023-02-11T09:10:57.413Z,3588
2023-02-11T09:11:56.563Z,4040
2023-02-11T09:12:56.541Z,3816
2023-02-11T09:13:59.354Z,3752
2023-02-11T09:14:56.501Z,3552
2023-02-11T09:15:56.589Z,3808
2023-02-11T09:16:57.014Z,3652
2023-02-11T09:17:56.376Z,3412
2023-02-11T09:18:56.355Z,3512
2023-02-11T09:19:56.337Z,3896
2023-02-11T09:20:56.958Z,4460
2023-02-11T09:21:56.272Z,5120
2023-02-11T09:22:56.199Z,5336
2023-02-11T09:23:56.184Z,4832
2023-02-11T09:24:56.159Z,4196
2023-02-11T09:25:56.814Z,3884
2023-02-11T09:26:56.082Z,4128
2023-02-11T09:27:56.135Z,4460
2023-02-11T09:28:56.023Z,4284
2023-02-11T09:29:55.979Z,4492
2023-02-11T09:30:57.633Z,4292
2023-02-11T09:31:56.674Z,4152
2023-02-11T09:32:55.996Z,4128
2023-02-11T09:33:55.915Z,4592
2023-02-11T09:34:55.819Z,5068
2023-02-11T09:35:55.829Z,5248
2023-02-11T09:36:55.789Z,5760
2023-02-11T09:37:55.757Z,5528
2023-02-11T09:38:55.774Z,5312
2023-02-11T09:39:55.682Z,5336
2023-02-11T09:40:56.419Z,5188
2023-02-11T09:41:55.623Z,5252
2023-02-11T09:42:58.315Z,5592
2023-02-11T09:43:55.553Z,5584
2023-02-11T09:44:55.511Z,5304
2023-02-11T09:45:55.864Z,5496
2023-02-11T09:46:55.459Z,4988
2023-02-11T09:47:55.440Z,4672
2023-02-11T09:48:55.401Z,4564
2023-02-11T09:49:55.358Z,5440
2023-02-11T09:50:56.019Z,5856
2023-02-11T09:51:55.313Z,6012
2023-02-11T09:52:55.460Z,6528
2023-02-11T09:53:55.225Z,6380
2023-02-11T09:54:55.212Z,5428
2023-02-11T09:55:55.167Z,5420
2023-02-11T09:56:55.606Z,5848
2023-02-11T09:57:55.139Z,6040
2023-02-11T09:58:55.068Z,6100
2023-02-11T09:59:55.042Z,6168
2023-02-11T10:00:55.800Z,6648
2023-02-11T10:01:55.308Z,7196
2023-02-11T10:02:54.988Z,7068
2023-02-11T10:03:54.974Z,5888
2023-02-11T10:04:54.929Z,6216
2023-02-11T10:05:54.855Z,6136
2023-02-11T10:06:54.982Z,6744
2023-02-11T10:07:54.812Z,7092
2023-02-11T10:08:54.786Z,7544
2023-02-11T10:09:54.744Z,7736
2023-02-11T10:10:55.561Z,8780
2023-02-11T10:11:54.658Z,8348
2023-02-11T10:12:54.648Z,6780
2023-02-11T10:13:54.676Z,6764
2023-02-11T10:14:54.558Z,7052
2023-02-11T10:15:54.760Z,6892
2023-02-11T10:16:54.631Z,7236
2023-02-11T10:17:54.478Z,6500
2023-02-11T10:18:54.466Z,6276
2023-02-11T10:19:54.409Z,6756
2023-02-11T10:20:55.320Z,7452
2023-02-11T10:21:54.364Z,6844
2023-02-11T10:22:54.583Z,6632
2023-02-11T10:23:54.315Z,7052
2023-02-11T10:24:54.299Z,7644
2023-02-11T10:25:54.241Z,8424
2023-02-11T10:26:54.216Z,8568
2023-02-11T10:27:54.162Z,8184
2023-02-11T10:28:54.168Z,9160
2023-02-11T10:29:54.130Z,8656
2023-02-11T10:30:55.825Z,7896
2023-02-11T10:31:56.527Z,7376
2023-02-11T10:32:54.020Z,7360
2023-02-11T10:33:54.110Z,7464
2023-02-11T10:34:53.978Z,8180
2023-02-11T10:35:53.919Z,8680
2023-02-11T10:36:53.928Z,9192
2023-02-11T10:37:53.878Z,8300
2023-02-11T10:38:53.864Z,6956
2023-02-11T10:39:53.832Z,6312
2023-02-11T10:40:54.820Z,6824
2023-02-11T10:41:53.752Z,7352
2023-02-11T10:42:56.690Z,8512
2023-02-11T10:43:53.697Z,8084
2023-02-11T10:44:53.411Z,7304
2023-02-11T10:45:53.649Z,7452
2023-02-11T10:46:53.856Z,7636
2023-02-11T10:47:53.546Z,7180
2023-02-11T10:48:53.529Z,7132
2023-02-11T10:49:53.491Z,6760
2023-02-11T10:50:54.234Z,6816
2023-02-11T10:51:53.423Z,6928
2023-02-11T10:52:53.156Z,7056
2023-02-11T10:53:53.364Z,7252
2023-02-11T10:54:53.330Z,7548
2023-02-11T10:55:53.404Z,7932
2023-02-11T10:56:53.289Z,7924
2023-02-11T10:57:53.273Z,7916
2023-02-11T10:58:53.220Z,7652
2023-02-11T10:59:53.173Z,7540
2023-02-11T11:00:53.826Z,7444
2023-02-11T11:01:53.450Z,8220
2023-02-11T11:02:53.092Z,8504
2023-02-11T11:03:53.077Z,9224
2023-02-11T11:04:53.326Z,8924
2023-02-11T11:05:53.015Z,8940
2023-02-11T11:06:52.988Z,8280
2023-02-11T11:07:52.916Z,7976
2023-02-11T11:08:52.962Z,7684
2023-02-11T11:09:52.860Z,8904
2023-02-11T11:10:55.476Z,9076
2023-02-11T11:11:52.816Z,8336
2023-02-11T11:12:52.795Z,8608
2023-02-11T11:13:52.774Z,8680
2023-02-11T11:14:52.744Z,7800
2023-02-11T11:15:52.916Z,7748
2023-02-11T11:16:52.644Z,7520
2023-02-11T11:17:52.653Z,7184
2023-02-11T11:18:52.613Z,6960
2023-02-11T11:19:52.573Z,6848
2023-02-11T11:20:53.242Z,6832
2023-02-11T11:21:52.638Z,6980
2023-02-11T11:22:52.548Z,7164
2023-02-11T11:23:52.451Z,6984
2023-02-11T11:24:52.417Z,6304
2023-02-11T11:25:52.372Z,5660
2023-02-11T11:26:52.368Z,5572
2023-02-11T11:27:52.312Z,5672
2023-02-11T11:28:52.317Z,6060
2023-02-11T11:29:52.255Z,5708
2023-02-11T11:30:53.305Z,6088
2023-02-11T11:31:52.435Z,6340
2023-02-11T11:32:51.664Z,6400
2023-02-11T11:33:52.347Z,6260
2023-02-11T11:34:52.100Z,6296
2023-02-11T11:35:52.062Z,6616
2023-02-11T11:36:52.028Z,6592
2023-02-11T11:37:51.999Z,6760
2023-02-11T11:38:51.992Z,6776
2023-02-11T11:39:51.986Z,7204
2023-02-11T11:40:52.457Z,6768
2023-02-11T11:41:51.874Z,6624
2023-02-11T11:42:51.871Z,6872
2023-02-11T11:43:51.811Z,7140
2023-02-11T11:44:51.895Z,7604
2023-02-11T11:45:51.758Z,7012
2023-02-11T11:46:52.074Z,6524
2023-02-11T11:47:51.692Z,6376
2023-02-11T11:48:51.678Z,6668
2023-02-11T11:49:51.666Z,6356
2023-02-11T11:50:52.401Z,6416
2023-02-11T11:51:51.574Z,6196
2023-02-11T11:52:51.537Z,6208
2023-02-11T11:53:51.509Z,5688
2023-02-11T11:54:51.510Z,5812
2023-02-11T11:55:51.460Z,6372
2023-02-11T11:56:51.435Z,6624
2023-02-11T11:57:51.433Z,6564
2023-02-11T11:58:51.539Z,6520
2023-02-11T11:59:51.328Z,6424
2023-02-11T12:00:52.195Z,7012
2023-02-11T12:01:51.280Z,7808
2023-02-11T12:02:51.488Z,7704
2023-02-11T12:03:51.221Z,7260
2023-02-11T12:04:51.202Z,7248
2023-02-11T12:05:51.187Z,7764
2023-02-11T12:06:51.139Z,7540
2023-02-11T12:07:51.108Z,7776
2023-02-11T12:08:50.902Z,7808
2023-02-11T12:09:51.035Z,6516
2023-02-11T12:10:51.754Z,6260
2023-02-11T12:11:50.958Z,6056
2023-02-11T12:12:53.863Z,6304
2023-02-11T12:13:50.928Z,5832
2023-02-11T12:14:50.902Z,5840
2023-02-11T12:15:50.846Z,5796
2023-02-11T12:16:51.196Z,5688
2023-02-11T12:17:50.844Z,4812
2023-02-11T12:18:54.312Z,4992
2023-02-11T12:19:50.705Z,5140
2023-02-11T12:20:51.138Z,4856
2023-02-11T12:21:50.429Z,5024
2023-02-11T12:22:50.617Z,5516
2023-02-11T12:23:50.636Z,5888
2023-02-11T12:24:50.585Z,6260
2023-02-11T12:25:50.276Z,6528
2023-02-11T12:26:50.535Z,6112
2023-02-11T12:27:50.473Z,5700
2023-02-11T12:28:50.452Z,5120
2023-02-11T12:29:50.416Z,5316
2023-02-11T12:30:51.362Z,5220
2023-02-11T12:31:50.514Z,4992
2023-02-11T12:32:50.349Z,5260
2023-02-11T12:33:50.311Z,5544
2023-02-11T12:34:50.248Z,5684
2023-02-11T12:35:50.235Z,5228
2023-02-11T12:36:50.214Z,5044
2023-02-11T12:37:50.200Z,5300
2023-02-11T12:38:50.130Z,4728
2023-02-11T12:39:50.117Z,4344
2023-02-11T12:40:50.500Z,4076
2023-02-11T12:41:50.049Z,4224
2023-02-11T12:42:50.051Z,4904
2023-02-11T12:43:49.972Z,4956
2023-02-11T12:44:49.951Z,4504
2023-02-11T12:45:49.910Z,4876
2023-02-11T12:46:49.927Z,4508
2023-02-11T12:47:49.883Z,4756
2023-02-11T12:48:49.845Z,4660
2023-02-11T12:49:49.808Z,4496
2023-02-11T12:50:50.057Z,4396
2023-02-11T12:51:49.738Z,4260
2023-02-11T12:52:49.700Z,3848
2023-02-11T12:53:49.700Z,3628
2023-02-11T12:54:49.679Z,3356
2023-02-11T12:55:49.605Z,3464
2023-02-11T12:56:49.573Z,3584
2023-02-11T12:57:49.564Z,4092
2023-02-11T12:58:52.883Z,4920
2023-02-11T12:59:49.496Z,5156
2023-02-11T13:00:50.123Z,5628
2023-02-11T13:01:49.682Z,5668
2023-02-11T13:02:49.701Z,5232
2023-02-11T13:03:50.592Z,5516
2023-02-11T13:04:49.377Z,5860
2023-02-11T13:05:49.312Z,5428
2023-02-11T13:06:49.271Z,4992
2023-02-11T13:07:49.254Z,5248
2023-02-11T13:08:49.211Z,5256
2023-02-11T13:09:49.237Z,4772
2023-02-11T13:10:49.530Z,5056
2023-02-11T13:11:49.117Z,5172
2023-02-11T13:12:49.080Z,4744
2023-02-11T13:13:48.821Z,5044
2023-02-11T13:14:49.065Z,4860
2023-02-11T13:15:49.001Z,5196
2023-02-11T13:16:49.343Z,5308
2023-02-11T13:17:49.072Z,4968
2023-02-11T13:18:48.921Z,4896
2023-02-11T13:19:48.670Z,4836
2023-02-11T13:20:49.087Z,4708
2023-02-11T13:21:48.834Z,4620
2023-02-11T13:22:48.832Z,4672
2023-02-11T13:23:48.779Z,4872
2023-02-11T13:24:48.729Z,5484
2023-02-11T13:25:48.727Z,5436
2023-02-11T13:26:48.665Z,4912
2023-02-11T13:27:48.647Z,5164
2023-02-11T13:28:48.617Z,5576
2023-02-11T13:29:48.556Z,4748
2023-02-11T13:30:49.088Z,4376
2023-02-11T13:31:49.083Z,4256
2023-02-11T13:32:48.487Z,4048
2023-02-11T13:33:48.468Z,4088
2023-02-11T13:34:48.458Z,4084
2023-02-11T13:35:48.385Z,4096
2023-02-11T13:36:48.381Z,4620
2023-02-11T13:37:48.307Z,5048
2023-02-11T13:38:48.462Z,4988
2023-02-11T13:39:48.263Z,4756
2023-02-11T13:40:48.251Z,4216
2023-02-11T13:41:48.595Z,4004
2023-02-11T13:42:48.171Z,3948
2023-02-11T13:43:48.132Z,3644
2023-02-11T13:44:48.104Z,3672
2023-02-11T13:45:48.083Z,3664
2023-02-11T13:46:48.089Z,3572
2023-02-11T13:47:48.635Z,3672
2023-02-11T13:48:47.987Z,3600
2023-02-11T13:49:48.132Z,3920
2023-02-11T13:50:47.961Z,4036
2023-02-11T13:51:47.650Z,3888
2023-02-11T13:52:47.885Z,3948
2023-02-11T13:53:47.825Z,3916
2023-02-11T13:54:47.794Z,3696
2023-02-11T13:55:47.758Z,3800
2023-02-11T13:56:47.757Z,3920
2023-02-11T13:57:47.724Z,3876
2023-02-11T13:58:47.420Z,3732
2023-02-11T13:59:47.635Z,3824
2023-02-11T14:00:47.630Z,3880